createdAt,value
2018-09-04T00:04:38.211Z,21.10
2018-09-04T00:09:21.831Z,22.03
2018-09-04T00:14:05.849Z,22.10
2018-09-04T00:18:49.771Z,21.33
2018-09-04T00:23:33.542Z,20.30
2018-09-04T00:28:17.368Z,20.63
2018-09-04T00:33:03.397Z,21.13
2018-09-04T00:37:47.116Z,23.27
2018-09-04T00:42:30.808Z,23.53
2018-09-04T00:47:14.503Z,24.23
2018-09-04T00:51:59.461Z,22.13
2018-09-04T00:56:43.136Z,26.00
2018-09-04T01:01:27.806Z,27.07
2018-09-04T01:06:11.572Z,23.40
2018-09-04T01:10:55.451Z,27.10
2018-09-04T01:15:39.195Z,27.40
2018-09-04T01:20:23.111Z,24.33
2018-09-04T01:25:07.124Z,26.03
2018-09-04T01:29:50.934Z,27.07
2018-09-04T01:34:34.724Z,26.90
2018-09-04T01:39:18.597Z,28.03
2018-09-04T01:44:02.332Z,26.80
2018-09-04T01:48:46.249Z,28.60
2018-09-04T01:53:30.081Z,25.13
2018-09-04T01:58:13.916Z,28.73
2018-09-04T02:02:57.662Z,28.80
2018-09-04T02:07:41.383Z,28.27
2018-09-04T02:12:25.138Z,29.93
2018-09-04T02:17:08.880Z,28.43
2018-09-04T02:21:52.704Z,28.53
2018-09-04T02:26:36.482Z,28.53
2018-09-04T02:31:20.238Z,27.23
2018-09-04T02:36:03.935Z,31.00
2018-09-04T02:40:47.690Z,32.93
2018-09-04T02:45:32.141Z,28.10
2018-09-04T02:50:15.866Z,31.43
2018-09-04T02:55:00.749Z,33.90
2018-09-04T02:59:44.482Z,30.33
2018-09-04T03:04:28.219Z,33.63
2018-09-04T03:09:11.992Z,35.60
2018-09-04T03:13:55.773Z,38.10
2018-09-04T03:18:39.523Z,38.17
2018-09-04T03:23:23.288Z,38.70
2018-09-04T03:28:07.184Z,39.57
2018-09-04T03:32:50.983Z,40.70
2018-09-04T03:37:34.837Z,33.70
2018-09-04T03:42:18.549Z,32.93
2018-09-04T03:47:02.516Z,35.93
2018-09-04T03:51:46.404Z,37.07
2018-09-04T03:56:30.270Z,39.00
2018-09-04T04:01:14.110Z,37.60
2018-09-04T04:05:58.072Z,34.67
2018-09-04T04:10:42.042Z,36.70
2018-09-04T04:15:25.846Z,35.03
2018-09-04T04:20:09.575Z,33.30
2018-09-04T04:24:53.762Z,35.93
2018-09-04T04:29:37.652Z,34.90
2018-09-04T04:34:21.346Z,32.47
2018-09-04T04:39:07.281Z,36.13
2018-09-04T04:43:50.980Z,34.17
2018-09-04T04:48:34.908Z,35.93
2018-09-04T04:53:19.752Z,37.53
2018-09-04T04:58:03.427Z,34.27
2018-09-04T05:02:47.328Z,47.03
2018-09-04T05:07:31.236Z,50.33
2018-09-04T05:12:15.168Z,38.37
2018-09-04T05:16:59.260Z,41.20
2018-09-04T05:21:43.015Z,42.30
2018-09-04T05:26:26.883Z,42.93
2018-09-04T05:31:10.629Z,44.77
2018-09-04T05:35:55.952Z,42.60
2018-09-04T05:40:39.714Z,41.03
2018-09-04T05:45:25.100Z,39.57
2018-09-04T05:50:09.546Z,38.07
2018-09-04T05:54:53.333Z,37.07
2018-09-04T05:59:37.272Z,37.37
2018-09-04T06:04:20.939Z,35.03
2018-09-04T06:09:05.234Z,39.20
2018-09-04T06:13:49.222Z,33.73
2018-09-04T06:18:32.997Z,29.27
2018-09-04T06:23:16.689Z,30.90
2018-09-04T06:28:00.571Z,29.77
2018-09-04T06:32:44.402Z,26.80
2018-09-04T06:37:28.295Z,28.63
2018-09-04T06:42:12.053Z,27.73
2018-09-04T06:46:55.983Z,29.87
2018-09-04T06:51:39.756Z,26.10
2018-09-04T06:56:23.502Z,26.73
2018-09-04T07:01:07.556Z,24.77
2018-09-04T07:05:51.310Z,28.67
2018-09-04T07:10:35.058Z,27.50
2018-09-04T07:15:18.748Z,25.60
2018-09-04T07:20:02.565Z,26.63
2018-09-04T07:24:46.230Z,23.90
2018-09-04T07:29:30.010Z,25.30
2018-09-04T07:34:13.751Z,26.53
2018-09-04T07:38:57.478Z,25.40
2018-09-04T07:43:41.366Z,25.60
2018-09-04T07:48:25.653Z,25.77
2018-09-04T07:53:09.356Z,24.33
2018-09-04T08:02:42.459Z,25.57
2018-09-04T08:07:26.274Z,23.87
2018-09-04T08:12:17.945Z,25.23
2018-09-04T08:17:01.775Z,25.67
2018-09-04T08:21:45.626Z,23.80
2018-09-04T08:26:29.390Z,21.03
2018-09-04T08:31:13.144Z,23.17
2018-09-04T08:35:58.555Z,20.60
2018-09-04T08:40:42.394Z,23.90
2018-09-04T08:45:26.157Z,21.60
2018-09-04T08:50:10.657Z,21.13
2018-09-04T08:54:54.819Z,19.90
2018-09-04T08:59:38.594Z,23.30
2018-09-04T09:04:22.251Z,20.17
2018-09-04T09:09:12.457Z,28.03
2018-09-04T09:13:56.331Z,20.03
2018-09-04T09:18:40.045Z,19.57
2018-09-04T09:23:24.649Z,20.40
2018-09-04T09:28:09.437Z,21.23
2018-09-04T09:33:00.477Z,22.50
2018-09-04T09:37:44.675Z,19.83
2018-09-04T09:42:28.612Z,20.20
2018-09-04T09:47:12.326Z,20.43
2018-09-04T09:51:56.045Z,17.47
2018-09-04T09:56:39.830Z,19.30
2018-09-04T10:01:28.744Z,17.87
2018-09-04T10:06:12.473Z,21.50
2018-09-04T10:10:56.708Z,21.20
2018-09-04T10:15:40.497Z,18.50
2018-09-04T10:20:25.069Z,18.73
2018-09-04T10:25:09.133Z,17.95
2018-09-04T10:29:52.907Z,19.75
2018-09-04T10:34:36.721Z,19.02
2018-09-04T10:39:26.147Z,19.10
2018-09-04T10:44:09.841Z,18.30
2018-09-04T10:48:53.757Z,18.90
2018-09-04T10:53:37.606Z,20.17
2018-09-04T10:58:21.326Z,19.00
2018-09-04T11:03:05.109Z,18.67
2018-09-04T11:07:48.852Z,18.48
2018-09-04T11:12:32.635Z,18.67
2018-09-04T11:17:16.393Z,17.75
2018-09-04T11:22:00.257Z,18.70
2018-09-04T11:26:44.004Z,17.30
2018-09-04T11:31:27.767Z,16.75
2018-09-04T11:36:11.517Z,17.30
2018-09-04T11:40:55.196Z,16.95
2018-09-04T11:45:39.099Z,18.48
2018-09-04T11:50:22.918Z,17.32
2018-09-04T11:55:06.983Z,15.43
2018-09-04T11:59:50.815Z,15.08
2018-09-04T12:04:34.489Z,14.40
2018-09-04T12:09:18.184Z,12.98
2018-09-04T12:14:01.969Z,13.72
2018-09-04T12:18:45.675Z,12.18
2018-09-04T12:23:29.522Z,11.88
2018-09-04T12:28:13.351Z,12.45
2018-09-04T12:32:57.047Z,12.98
2018-09-04T12:37:40.721Z,12.60
2018-09-04T12:42:26.854Z,12.37
2018-09-04T12:47:10.542Z,13.33
2018-09-04T12:51:54.281Z,11.73
2018-09-04T12:56:37.915Z,13.07
2018-09-04T13:01:21.745Z,11.90
2018-09-04T13:06:05.683Z,17.23
2018-09-04T13:10:49.579Z,10.93
2018-09-04T13:15:33.351Z,11.70
2018-09-04T13:20:17.103Z,10.83
2018-09-04T13:25:00.991Z,10.60
2018-09-04T13:29:44.760Z,10.50
2018-09-04T13:34:28.712Z,10.53
2018-09-04T13:39:12.524Z,10.80
2018-09-04T13:43:56.482Z,10.00
2018-09-04T13:48:40.305Z,11.30
2018-09-04T13:53:24.327Z,11.22
2018-09-04T13:58:08.099Z,10.60
2018-09-04T14:02:52.077Z,10.13
2018-09-04T14:07:35.840Z,11.88
2018-09-04T14:12:19.638Z,10.13
2018-09-04T14:17:03.610Z,9.95
2018-09-04T14:21:47.433Z,9.50
2018-09-04T14:26:32.573Z,9.00
2018-09-04T14:31:16.316Z,10.90
2018-09-04T14:36:00.580Z,9.15
2018-09-04T14:40:47.665Z,9.88
2018-09-04T14:45:33.542Z,8.88
2018-09-04T14:50:18.642Z,7.97
2018-09-04T14:55:02.602Z,7.60
2018-09-04T14:59:51.819Z,8.53
2018-09-04T15:04:35.730Z,8.73
2018-09-04T15:09:19.571Z,11.85
2018-09-04T15:14:03.525Z,11.48
2018-09-04T15:18:47.805Z,10.05
2018-09-04T15:23:37.566Z,9.88
2018-09-04T15:28:21.445Z,9.43
2018-09-04T15:33:05.537Z,10.78
2018-09-04T15:37:51.167Z,10.15
2018-09-04T15:42:35.168Z,9.15
2018-09-04T15:47:19.494Z,9.83
2018-09-04T15:52:03.634Z,9.60
2018-09-04T15:56:47.441Z,9.90
2018-09-04T16:01:31.241Z,9.57
2018-09-04T16:06:15.862Z,10.33
2018-09-04T16:10:59.728Z,9.93
2018-09-04T16:15:43.515Z,12.13
2018-09-04T16:20:27.594Z,10.37
2018-09-04T16:25:11.477Z,10.63
2018-09-04T16:29:55.511Z,9.37
2018-09-04T16:34:39.248Z,9.63
2018-09-04T16:39:23.125Z,8.97
2018-09-04T16:44:06.981Z,9.67
2018-09-04T16:48:51.410Z,8.80
2018-09-04T16:53:35.062Z,9.20
2018-09-04T16:58:18.973Z,10.00
2018-09-04T17:03:03.234Z,9.77
2018-09-04T17:07:47.757Z,10.43
2018-09-04T17:12:31.842Z,11.70
2018-09-04T17:17:15.761Z,14.83
2018-09-04T17:21:59.526Z,11.03
2018-09-04T17:26:44.089Z,9.47
2018-09-04T17:31:28.422Z,9.53
2018-09-04T17:36:12.375Z,10.00
2018-09-04T17:40:56.316Z,8.90
2018-09-04T17:45:40.901Z,9.47
2018-09-04T17:50:24.838Z,9.20
2018-09-04T17:55:08.755Z,10.67
2018-09-04T17:59:53.063Z,11.50
2018-09-04T18:04:40.866Z,9.73
2018-09-04T18:09:25.075Z,11.13
2018-09-04T18:14:10.115Z,10.90
2018-09-04T18:18:56.011Z,11.23
2018-09-04T18:23:41.188Z,10.67
2018-09-04T18:28:26.207Z,10.17
2018-09-04T18:33:10.414Z,14.33
2018-09-04T18:37:56.803Z,12.23
2018-09-04T18:42:41.415Z,13.07
2018-09-04T18:47:26.419Z,11.37
2018-09-04T18:52:13.617Z,11.43
2018-09-04T18:56:59.909Z,12.17
2018-09-04T19:01:44.921Z,12.23
2018-09-04T19:06:29.014Z,11.07
2018-09-04T19:11:13.147Z,12.30
2018-09-04T19:16:04.959Z,13.13
2018-09-04T19:20:49.356Z,10.90
2018-09-04T19:25:42.884Z,12.15
2018-09-04T19:30:38.835Z,12.83
2018-09-04T19:35:25.521Z,12.03
2018-09-04T19:40:10.486Z,11.47
2018-09-04T19:44:54.559Z,10.90
2018-09-04T19:49:38.697Z,11.03
2018-09-04T19:54:22.657Z,11.57
2018-09-04T19:59:06.588Z,11.93
2018-09-04T20:03:50.646Z,14.20
2018-09-04T20:08:34.691Z,10.27
2018-09-04T20:13:18.509Z,10.60
2018-09-04T20:18:03.050Z,11.60
2018-09-04T20:22:47.049Z,11.30
2018-09-04T20:27:31.020Z,10.50
2018-09-04T20:32:17.799Z,8.30
2018-09-04T20:37:01.751Z,10.27
2018-09-04T20:41:46.884Z,11.10
2018-09-04T20:46:31.937Z,11.00
2018-09-04T20:51:16.155Z,10.23
2018-09-04T20:56:00.145Z,8.57
2018-09-04T21:00:54.893Z,10.00
2018-09-04T21:05:49.840Z,10.10
2018-09-04T21:10:33.789Z,9.07
2018-09-04T21:15:17.927Z,9.37
2018-09-04T21:20:02.909Z,11.43
2018-09-04T21:24:47.200Z,9.50
2018-09-04T21:29:33.173Z,9.50
2018-09-04T21:34:17.671Z,10.17
2018-09-04T21:39:03.690Z,10.40
2018-09-04T21:43:50.471Z,10.70
2018-09-04T21:48:34.895Z,10.13
2018-09-04T21:53:19.132Z,10.97
2018-09-04T21:58:04.179Z,9.40
2018-09-04T22:02:48.202Z,9.20
2018-09-04T22:07:32.212Z,10.17
2018-09-04T22:12:16.019Z,10.23
2018-09-04T22:17:14.746Z,11.33
2018-09-04T22:26:54.974Z,10.70
2018-09-04T22:31:38.819Z,9.17
2018-09-04T22:36:22.808Z,9.80
2018-09-04T22:41:08.058Z,11.37
2018-09-04T22:45:52.007Z,11.47
2018-09-04T22:50:41.079Z,8.90
2018-09-04T22:55:25.191Z,8.60
2018-09-04T23:00:30.152Z,11.00
2018-09-04T23:05:14.375Z,11.03
2018-09-04T23:09:58.200Z,11.23
2018-09-04T23:14:42.164Z,12.93
2018-09-04T23:19:26.159Z,11.03
2018-09-04T23:24:10.787Z,10.33
2018-09-04T23:28:55.118Z,12.67
2018-09-04T23:33:39.058Z,11.57
2018-09-04T23:38:23.426Z,12.40
2018-09-04T23:43:07.260Z,11.53
2018-09-04T23:47:51.104Z,11.87
2018-09-04T23:52:42.109Z,12.63
